createdAt,value
2018-11-06T00:00:11.744Z,61.67
2018-11-06T00:02:40.120Z,59.43
2018-11-06T00:05:12.855Z,57.90
2018-11-06T00:07:41.860Z,56.83
2018-11-06T00:10:10.144Z,58.00
2018-11-06T00:12:38.303Z,56.50
2018-11-06T00:15:06.931Z,55.50
2018-11-06T00:17:35.067Z,54.83
2018-11-06T00:20:03.235Z,54.07
2018-11-06T00:22:31.345Z,55.27
2018-11-06T00:24:59.510Z,51.93
2018-11-06T00:27:27.664Z,55.63
2018-11-06T00:29:55.814Z,53.57
2018-11-06T00:32:23.932Z,50.97
2018-11-06T00:34:52.090Z,54.53
2018-11-06T00:37:20.259Z,57.47
2018-11-06T00:39:48.371Z,55.73
2018-11-06T00:42:16.506Z,54.63
2018-11-06T00:44:44.612Z,52.17
2018-11-06T00:47:12.731Z,53.33
2018-11-06T00:49:40.874Z,52.77
2018-11-06T00:52:08.997Z,56.23
2018-11-06T00:54:37.078Z,52.53
2018-11-06T00:57:05.360Z,56.03
2018-11-06T00:59:33.506Z,54.90
2018-11-06T01:02:01.598Z,55.00
2018-11-06T01:04:29.757Z,51.97
2018-11-06T01:06:57.831Z,54.77
2018-11-06T01:09:26.020Z,53.80
2018-11-06T01:11:54.175Z,54.63
2018-11-06T01:14:22.346Z,54.20
2018-11-06T01:16:50.532Z,54.43
2018-11-06T01:19:18.699Z,53.27
2018-11-06T01:21:46.874Z,56.87
2018-11-06T01:24:15.042Z,55.87
2018-11-06T01:26:43.236Z,53.43
2018-11-06T01:29:11.351Z,55.07
2018-11-06T01:31:39.492Z,54.50
2018-11-06T01:34:07.632Z,54.67
2018-11-06T01:36:35.821Z,54.70
2018-11-06T01:39:05.094Z,54.70
2018-11-06T01:41:33.194Z,53.90
2018-11-06T01:44:01.321Z,55.47
2018-11-06T01:46:29.422Z,51.50
2018-11-06T01:48:57.515Z,53.27
2018-11-06T01:51:25.598Z,54.43
2018-11-06T01:53:53.750Z,54.90
2018-11-06T01:56:21.842Z,52.73
2018-11-06T01:58:49.929Z,52.67
2018-11-06T02:01:18.110Z,52.07
2018-11-06T02:03:46.254Z,53.03
2018-11-06T02:06:14.428Z,54.07
2018-11-06T02:08:42.578Z,52.77
2018-11-06T02:11:10.725Z,53.87
2018-11-06T02:13:38.827Z,49.83
2018-11-06T02:16:07.138Z,51.33
2018-11-06T02:18:35.295Z,50.03
2018-11-06T02:21:03.398Z,50.23
2018-11-06T02:23:31.524Z,51.07
2018-11-06T02:25:59.703Z,50.17
2018-11-06T02:28:27.807Z,48.07
2018-11-06T02:30:55.899Z,49.17
2018-11-06T02:33:23.994Z,47.83
2018-11-06T02:35:52.108Z,49.00
2018-11-06T02:38:20.209Z,47.70
2018-11-06T02:40:48.370Z,47.83
2018-11-06T02:43:16.578Z,47.10
2018-11-06T02:45:44.705Z,47.73
2018-11-06T02:48:12.869Z,49.40
2018-11-06T02:50:41.046Z,48.53
2018-11-06T02:53:09.125Z,49.53
2018-11-06T02:55:37.300Z,47.30
2018-11-06T02:58:05.479Z,46.80
2018-11-06T03:00:33.618Z,50.27
2018-11-06T03:03:01.716Z,48.50
2018-11-06T03:05:29.843Z,47.13
2018-11-06T03:07:57.947Z,47.50
2018-11-06T03:10:26.206Z,48.03
2018-11-06T03:12:54.278Z,49.60
2018-11-06T03:15:22.378Z,47.80
2018-11-06T03:17:50.568Z,49.77
2018-11-06T03:20:18.699Z,47.20
2018-11-06T03:22:46.860Z,47.83
2018-11-06T03:25:14.959Z,49.50
2018-11-06T03:27:43.223Z,47.53
2018-11-06T03:30:13.225Z,46.10
2018-11-06T03:32:41.435Z,46.43
2018-11-06T03:35:10.822Z,48.30
2018-11-06T03:37:38.984Z,46.20
2018-11-06T03:40:07.754Z,46.30
2018-11-06T03:42:36.139Z,44.40
2018-11-06T03:45:04.468Z,44.07
2018-11-06T03:47:32.592Z,45.27
2018-11-06T03:50:00.983Z,46.10
2018-11-06T03:52:29.163Z,44.23
2018-11-06T03:54:57.395Z,44.43
2018-11-06T03:57:25.615Z,46.03
2018-11-06T03:59:53.774Z,46.07
2018-11-06T04:02:21.892Z,45.57
2018-11-06T04:04:50.051Z,45.63
2018-11-06T04:07:18.187Z,45.00
2018-11-06T04:09:46.280Z,47.10
2018-11-06T04:12:14.443Z,44.93
2018-11-06T04:14:42.620Z,44.80
2018-11-06T04:17:10.730Z,44.57
2018-11-06T04:19:38.866Z,43.50
2018-11-06T04:22:06.981Z,44.33
2018-11-06T04:24:35.110Z,42.93
2018-11-06T04:27:03.216Z,44.30
2018-11-06T04:29:31.352Z,42.87
2018-11-06T04:31:59.448Z,42.03
2018-11-06T04:34:27.561Z,42.37
2018-11-06T04:36:55.666Z,41.73
2018-11-06T04:39:23.853Z,42.60
2018-11-06T04:41:51.953Z,42.47
2018-11-06T04:44:20.066Z,41.23
2018-11-06T04:46:48.171Z,40.50
2018-11-06T04:49:16.267Z,39.30
2018-11-06T04:51:44.401Z,42.27
2018-11-06T04:54:12.507Z,41.13
2018-11-06T04:56:40.672Z,41.07
2018-11-06T04:59:08.823Z,41.90
2018-11-06T05:01:36.946Z,41.60
2018-11-06T05:04:05.262Z,40.50
2018-11-06T05:06:33.436Z,40.43
2018-11-06T05:09:01.565Z,41.17
2018-11-06T05:11:29.703Z,41.00
2018-11-06T05:13:57.883Z,39.67
2018-11-06T05:16:26.088Z,38.93
2018-11-06T05:18:54.178Z,39.23
2018-11-06T05:21:22.279Z,40.80
2018-11-06T05:23:50.471Z,39.33
2018-11-06T05:26:18.569Z,40.20
2018-11-06T05:28:46.740Z,39.13
2018-11-06T05:31:14.895Z,40.23
2018-11-06T05:33:43.535Z,40.87
2018-11-06T05:36:11.682Z,41.03
2018-11-06T05:38:39.854Z,40.50
2018-11-06T05:41:08.500Z,41.47
2018-11-06T05:43:37.508Z,40.77
2018-11-06T05:46:05.620Z,42.07
2018-11-06T05:48:33.850Z,40.73
2018-11-06T05:51:02.326Z,40.17
2018-11-06T05:53:30.447Z,39.07
2018-11-06T05:55:58.622Z,41.83
2018-11-06T05:58:26.731Z,40.43
2018-11-06T06:00:54.914Z,40.00
2018-11-06T06:03:23.115Z,38.63
2018-11-06T06:05:51.206Z,39.50
2018-11-06T06:08:19.320Z,39.13
2018-11-06T06:10:47.435Z,38.43
2018-11-06T06:13:15.564Z,39.57
2018-11-06T06:15:43.654Z,40.10
2018-11-06T06:18:11.764Z,38.83
2018-11-06T06:20:39.926Z,37.67
2018-11-06T06:23:08.071Z,37.83
2018-11-06T06:25:36.176Z,39.33
2018-11-06T06:28:04.316Z,37.70
2018-11-06T06:30:32.433Z,37.97
2018-11-06T06:33:00.562Z,36.67
2018-11-06T06:35:28.687Z,36.73
2018-11-06T06:37:56.839Z,36.50
2018-11-06T06:40:24.988Z,36.37
2018-11-06T06:42:53.139Z,34.67
2018-11-06T06:45:21.344Z,34.10
2018-11-06T06:47:49.470Z,34.90
2018-11-06T06:50:18.906Z,34.33
2018-11-06T06:52:47.690Z,34.90
2018-11-06T06:55:16.541Z,37.33
2018-11-06T06:57:47.616Z,35.77
2018-11-06T07:00:20.088Z,35.20
2018-11-06T07:02:48.315Z,34.20
2018-11-06T07:05:18.899Z,34.30
2018-11-06T07:07:47.070Z,35.37
2018-11-06T07:10:16.487Z,32.67
2018-11-06T07:12:45.148Z,35.77
2018-11-06T07:15:14.578Z,34.40
2018-11-06T07:17:43.363Z,33.90
2018-11-06T07:20:13.275Z,35.93
2018-11-06T07:22:41.398Z,35.63
2018-11-06T07:25:10.535Z,35.50
2018-11-06T07:27:39.237Z,33.10
2018-11-06T07:30:08.358Z,32.73
2018-11-06T07:32:36.747Z,32.83
2018-11-06T07:35:05.627Z,32.90
2018-11-06T07:37:33.559Z,30.77
2018-11-06T07:40:02.046Z,31.10
2018-11-06T07:42:30.152Z,31.17
2018-11-06T07:44:58.295Z,31.53
2018-11-06T07:47:26.384Z,30.07
2018-11-06T07:49:54.624Z,29.53
2018-11-06T07:52:22.707Z,27.97
2018-11-06T07:54:50.899Z,28.47
2018-11-06T07:57:19.149Z,28.27
2018-11-06T07:59:47.252Z,27.37
2018-11-06T08:02:15.347Z,27.70
2018-11-06T08:04:43.462Z,28.10
2018-11-06T08:07:11.674Z,27.90
2018-11-06T08:09:39.936Z,26.27
2018-11-06T08:12:08.043Z,25.93
2018-11-06T08:14:36.410Z,25.20
2018-11-06T08:17:04.907Z,25.07
2018-11-06T08:19:33.032Z,25.70
2018-11-06T08:22:01.136Z,23.57
2018-11-06T08:24:29.230Z,23.27
2018-11-06T08:26:57.349Z,22.73
2018-11-06T08:29:25.487Z,23.37
2018-11-06T08:31:53.721Z,22.47
2018-11-06T08:34:21.768Z,22.47
2018-11-06T08:36:49.927Z,22.10
2018-11-06T08:39:18.050Z,20.73
2018-11-06T08:41:46.195Z,20.27
2018-11-06T08:44:14.400Z,20.57
2018-11-06T08:46:42.574Z,20.90
2018-11-06T08:49:10.723Z,19.90
2018-11-06T08:51:38.893Z,20.87
2018-11-06T08:54:07.062Z,19.53
2018-11-06T08:56:35.248Z,20.97
2018-11-06T08:59:03.515Z,18.60
2018-11-06T09:01:31.632Z,18.33
2018-11-06T09:03:59.788Z,16.37
2018-11-06T09:06:27.925Z,16.20
2018-11-06T09:08:56.064Z,16.97
2018-11-06T09:11:24.207Z,16.57
2018-11-06T09:13:52.444Z,16.93
2018-11-06T09:16:20.638Z,16.20
2018-11-06T09:18:48.822Z,16.90
2018-11-06T09:21:16.971Z,17.10
2018-11-06T09:23:45.170Z,16.77
2018-11-06T09:26:13.349Z,16.70
2018-11-06T09:28:41.488Z,16.53
2018-11-06T09:31:09.709Z,16.00
2018-11-06T09:33:37.732Z,16.70
2018-11-06T09:36:05.907Z,17.30
2018-11-06T09:38:34.100Z,17.50
2018-11-06T09:41:02.358Z,17.07
2018-11-06T09:43:30.373Z,17.30
2018-11-06T09:45:58.499Z,17.43
2018-11-06T09:48:26.620Z,17.83
2018-11-06T09:50:54.779Z,16.67
2018-11-06T09:53:22.883Z,17.93
2018-11-06T09:55:51.003Z,16.97
2018-11-06T09:58:19.194Z,16.03
2018-11-06T10:00:47.303Z,16.63
2018-11-06T10:03:15.447Z,16.87
2018-11-06T10:05:43.554Z,16.60
2018-11-06T10:08:11.718Z,16.93
2018-11-06T10:10:39.843Z,16.53
2018-11-06T10:13:08.053Z,15.90
2018-11-06T10:15:36.205Z,15.63
2018-11-06T10:18:04.806Z,15.70
2018-11-06T10:20:32.941Z,15.47
2018-11-06T10:23:01.206Z,15.87
2018-11-06T10:25:29.446Z,14.93
2018-11-06T10:27:57.599Z,16.57
2018-11-06T10:30:25.762Z,15.60
2018-11-06T10:32:53.923Z,14.80
2018-11-06T10:35:22.132Z,16.13
2018-11-06T10:37:50.228Z,15.53
2018-11-06T10:40:19.779Z,16.20
2018-11-06T10:42:48.155Z,14.77
2018-11-06T10:45:16.834Z,15.37
2018-11-06T10:47:45.207Z,14.10
2018-11-06T10:50:14.108Z,14.10
2018-11-06T10:52:42.707Z,13.83
2018-11-06T10:55:11.161Z,13.50
2018-11-06T10:57:40.158Z,13.40
2018-11-06T11:00:13.498Z,12.63
2018-11-06T11:02:47.061Z,12.67
2018-11-06T11:05:15.431Z,13.00
2018-11-06T11:07:43.639Z,12.33
2018-11-06T11:10:12.299Z,11.80
2018-11-06T11:12:40.581Z,12.37
2018-11-06T11:15:08.624Z,11.13
2018-11-06T11:17:37.039Z,12.23
2018-11-06T11:20:06.398Z,11.80
2018-11-06T11:22:34.499Z,11.27
2018-11-06T11:25:02.590Z,11.43
2018-11-06T11:27:30.762Z,11.03
2018-11-06T11:29:58.872Z,11.20
2018-11-06T11:32:27.191Z,12.10
2018-11-06T11:34:55.292Z,11.73
2018-11-06T11:37:23.420Z,10.93
2018-11-06T11:39:51.523Z,11.50
2018-11-06T11:42:19.637Z,11.63
2018-11-06T11:44:47.796Z,11.03
2018-11-06T11:47:15.911Z,12.50
2018-11-06T11:49:44.042Z,10.47
2018-11-06T11:52:12.500Z,11.17
2018-11-06T11:54:40.594Z,10.60
2018-11-06T11:57:08.678Z,10.87
2018-11-06T11:59:36.917Z,10.97
2018-11-06T12:02:05.260Z,11.53
2018-11-06T12:04:33.388Z,12.77
2018-11-06T12:07:01.474Z,11.90
2018-11-06T12:09:29.650Z,12.23
2018-11-06T12:11:57.790Z,11.53
2018-11-06T12:14:25.895Z,10.87
2018-11-06T12:16:54.027Z,11.43
2018-11-06T12:19:22.135Z,11.40
2018-11-06T12:21:50.292Z,10.67
2018-11-06T12:24:18.578Z,10.23
2018-11-06T12:26:46.628Z,11.03
2018-11-06T12:29:14.802Z,12.57
2018-11-06T12:31:42.909Z,12.67
2018-11-06T12:34:11.097Z,10.87
2018-11-06T12:36:39.319Z,9.93
2018-11-06T12:39:08.724Z,10.00
2018-11-06T12:41:36.830Z,9.73
2018-11-06T12:44:04.924Z,9.97
2018-11-06T12:46:33.030Z,9.63
2018-11-06T12:49:01.147Z,8.90
2018-11-06T12:51:29.299Z,8.67
2018-11-06T12:53:57.447Z,8.53
2018-11-06T12:56:25.564Z,8.03
2018-11-06T12:58:53.843Z,7.80
2018-11-06T13:01:21.970Z,7.93
2018-11-06T13:03:50.058Z,7.90
2018-11-06T13:06:18.218Z,7.47
2018-11-06T13:08:46.345Z,7.77
2018-11-06T13:11:14.467Z,7.53
2018-11-06T13:13:42.683Z,7.03
2018-11-06T13:16:10.858Z,8.10
2018-11-06T13:18:38.912Z,8.50
2018-11-06T13:21:07.056Z,8.03
2018-11-06T13:23:35.276Z,9.33
2018-11-06T13:26:03.469Z,8.93
2018-11-06T13:28:31.596Z,9.00
2018-11-06T13:30:59.766Z,9.83
2018-11-06T13:33:27.927Z,11.60
2018-11-06T13:35:56.114Z,12.77
2018-11-06T13:38:24.219Z,11.70
2018-11-06T13:40:52.337Z,10.63
2018-11-06T13:43:20.639Z,9.43
2018-11-06T13:45:49.005Z,10.90
2018-11-06T13:48:17.088Z,9.77
2018-11-06T13:50:45.213Z,9.87
2018-11-06T13:53:13.315Z,10.47
2018-11-06T13:55:41.406Z,10.17
2018-11-06T13:58:09.500Z,10.83
2018-11-06T14:00:37.600Z,10.07
2018-11-06T14:03:05.711Z,10.17
2018-11-06T14:05:33.828Z,9.97
2018-11-06T14:08:01.948Z,9.63
2018-11-06T14:10:30.267Z,9.53
2018-11-06T14:12:58.370Z,9.70
2018-11-06T14:15:26.508Z,9.17
2018-11-06T14:17:54.610Z,9.10
2018-11-06T14:20:23.362Z,8.33
2018-11-06T14:22:51.518Z,7.97
2018-11-06T14:25:19.614Z,8.53
2018-11-06T14:27:47.719Z,8.43
2018-11-06T14:30:18.332Z,9.00
2018-11-06T14:32:46.987Z,8.13
2018-11-06T14:35:16.088Z,8.00
2018-11-06T14:37:44.850Z,8.93
2018-11-06T14:40:13.635Z,8.83
2018-11-06T14:42:42.145Z,8.47
2018-11-06T14:45:11.417Z,7.60
2018-11-06T14:47:39.617Z,8.17
2018-11-06T14:50:08.104Z,7.70
2018-11-06T14:52:36.449Z,6.47
2018-11-06T14:55:04.764Z,7.13
2018-11-06T14:57:32.987Z,6.87
2018-11-06T15:00:01.147Z,7.30
2018-11-06T15:02:29.256Z,7.13
2018-11-06T15:04:57.496Z,7.50
2018-11-06T15:07:25.606Z,7.20
2018-11-06T15:09:54.185Z,7.20
2018-11-06T15:12:22.320Z,7.43
2018-11-06T15:14:50.428Z,7.17
2018-11-06T15:17:18.590Z,6.70
2018-11-06T15:19:46.734Z,7.33
2018-11-06T15:22:14.865Z,7.40
2018-11-06T15:24:42.993Z,7.07
2018-11-06T15:27:11.108Z,7.00
2018-11-06T15:29:39.261Z,6.93
2018-11-06T15:32:07.440Z,7.03
2018-11-06T15:34:35.993Z,7.57
2018-11-06T15:37:04.065Z,7.30
2018-11-06T15:39:32.334Z,7.77
2018-11-06T15:42:01.568Z,7.13
2018-11-06T15:44:29.573Z,7.20
2018-11-06T15:46:57.750Z,7.37
2018-11-06T15:49:25.885Z,8.20
2018-11-06T15:51:54.059Z,7.97
2018-11-06T15:54:22.217Z,7.63
2018-11-06T15:56:50.348Z,7.77
2018-11-06T15:59:19.512Z,8.03
2018-11-06T16:01:47.659Z,8.30
2018-11-06T16:04:15.755Z,7.83
2018-11-06T16:06:43.922Z,7.93
2018-11-06T16:09:12.490Z,7.90
2018-11-06T16:11:40.771Z,8.13
2018-11-06T16:14:09.462Z,8.57
2018-11-06T16:16:37.607Z,8.70
2018-11-06T16:19:05.740Z,7.90
2018-11-06T16:21:35.207Z,7.83
2018-11-06T16:24:04.564Z,8.70
2018-11-06T16:26:33.045Z,9.00
2018-11-06T16:29:01.527Z,8.33
2018-11-06T16:31:29.745Z,9.00
2018-11-06T16:33:57.867Z,9.47
2018-11-06T16:36:25.988Z,9.87
2018-11-06T16:38:54.394Z,9.47
2018-11-06T16:41:23.397Z,9.70
2018-11-06T16:43:51.816Z,9.20
2018-11-06T16:46:19.928Z,9.30
2018-11-06T16:48:48.104Z,9.53
2018-11-06T16:51:17.117Z,10.00
2018-11-06T16:53:46.558Z,9.40
2018-11-06T16:56:14.823Z,10.30
2018-11-06T16:58:43.125Z,9.97
2018-11-06T17:01:11.478Z,11.37
2018-11-06T17:03:39.495Z,10.97
2018-11-06T17:06:16.315Z,11.17
2018-11-06T17:08:44.446Z,12.70
2018-11-06T17:11:12.595Z,12.63
2018-11-06T17:13:40.778Z,14.53
2018-11-06T17:16:10.180Z,14.10
2018-11-06T17:18:38.329Z,14.33
2018-11-06T17:21:07.526Z,15.87
2018-11-06T17:23:40.047Z,15.37
2018-11-06T17:26:09.520Z,15.50
2018-11-06T17:28:38.350Z,14.60
2018-11-06T17:31:06.597Z,14.87
2018-11-06T17:33:36.757Z,15.20
2018-11-06T17:36:05.230Z,16.60
2018-11-06T17:38:33.892Z,17.47
2018-11-06T17:41:02.630Z,16.73
2018-11-06T17:43:30.827Z,16.43
2018-11-06T17:45:59.064Z,17.43
2018-11-06T17:48:27.262Z,15.90
2018-11-06T17:50:55.490Z,16.17
2018-11-06T17:53:23.639Z,17.67
2018-11-06T17:55:51.749Z,16.37
2018-11-06T17:58:19.845Z,17.03
2018-11-06T18:00:48.062Z,17.37
2018-11-06T18:03:16.217Z,17.93
2018-11-06T18:05:44.379Z,17.47
2018-11-06T18:08:12.535Z,17.37
2018-11-06T18:10:40.804Z,18.30
2018-11-06T18:13:09.110Z,18.60
2018-11-06T18:15:37.292Z,18.40
2018-11-06T18:18:05.557Z,18.87
2018-11-06T18:20:33.634Z,17.47
2018-11-06T18:23:01.774Z,17.73
2018-11-06T18:25:30.079Z,19.93
2018-11-06T18:27:58.058Z,19.63
2018-11-06T18:30:26.322Z,19.27
2018-11-06T18:32:54.501Z,19.70
2018-11-06T18:35:22.656Z,20.33
2018-11-06T18:37:50.867Z,20.37
2018-11-06T18:40:20.033Z,20.00
2018-11-06T18:42:49.067Z,21.43
2018-11-06T18:45:17.232Z,20.33
2018-11-06T18:47:45.382Z,19.87
2018-11-06T18:50:14.798Z,20.63
2018-11-06T18:52:44.303Z,20.63
2018-11-06T18:55:12.478Z,20.67
2018-11-06T18:57:40.860Z,21.63
2018-11-06T19:00:11.479Z,21.20
2018-11-06T19:02:39.578Z,18.57
2018-11-06T19:05:07.715Z,19.43
2018-11-06T19:07:36.203Z,18.83
2018-11-06T19:10:04.583Z,19.27
2018-11-06T19:12:32.745Z,21.13
2018-11-06T19:15:00.923Z,19.50
2018-11-06T19:17:29.112Z,19.50
2018-11-06T19:19:57.277Z,19.10
2018-11-06T19:22:25.437Z,19.40
2018-11-06T19:24:53.685Z,19.60
2018-11-06T19:27:21.784Z,20.20
2018-11-06T19:29:49.931Z,19.27
2018-11-06T19:32:18.104Z,19.93
2018-11-06T19:34:46.324Z,19.90
2018-11-06T19:37:14.524Z,21.07
2018-11-06T19:39:43.733Z,20.70
2018-11-06T19:42:13.047Z,21.00
2018-11-06T19:44:41.213Z,20.07
2018-11-06T19:47:09.399Z,20.73
2018-11-06T19:49:37.665Z,19.83
2018-11-06T19:52:06.583Z,19.80
2018-11-06T19:54:34.952Z,18.77
2018-11-06T19:57:03.099Z,20.60
2018-11-06T19:59:31.679Z,19.47
2018-11-06T20:01:59.850Z,19.17
2018-11-06T20:04:28.067Z,19.90
2018-11-06T20:06:56.164Z,18.70
2018-11-06T20:09:24.268Z,19.07
2018-11-06T20:11:52.533Z,20.53
2018-11-06T20:14:20.706Z,18.67
2018-11-06T20:16:48.907Z,18.57
2018-11-06T20:19:17.094Z,17.50
2018-11-06T20:21:45.553Z,17.03
2018-11-06T20:24:13.725Z,18.20
2018-11-06T20:26:42.035Z,18.97
2018-11-06T20:29:10.244Z,18.50
2018-11-06T20:31:38.551Z,18.73
2018-11-06T20:34:06.813Z,18.97
2018-11-06T20:36:34.977Z,17.67
2018-11-06T20:39:03.204Z,17.33
2018-11-06T20:41:31.343Z,17.57
2018-11-06T20:43:59.499Z,16.53
2018-11-06T20:46:27.724Z,17.00
2018-11-06T20:48:55.828Z,16.77
2018-11-06T20:51:23.924Z,19.07
2018-11-06T20:53:52.069Z,18.03
2018-11-06T20:56:20.228Z,18.20
2018-11-06T20:58:48.462Z,17.53
2018-11-06T21:01:16.614Z,17.37
2018-11-06T21:03:44.797Z,16.60
2018-11-06T21:06:12.944Z,16.50
2018-11-06T21:08:41.101Z,16.90
2018-11-06T21:11:09.226Z,16.23
2018-11-06T21:13:37.464Z,16.07
2018-11-06T21:16:05.850Z,15.47
2018-11-06T21:18:35.513Z,15.23
2018-11-06T21:21:05.679Z,15.23
2018-11-06T21:23:33.889Z,15.50
2018-11-06T21:26:02.760Z,15.20
2018-11-06T21:28:30.761Z,16.30
2018-11-06T21:30:58.897Z,15.33
2018-11-06T21:33:27.659Z,15.20
2018-11-06T21:35:55.966Z,16.63
2018-11-06T21:38:24.124Z,15.57
2018-11-06T21:40:52.298Z,15.27
2018-11-06T21:43:20.476Z,14.50
2018-11-06T21:45:48.644Z,14.43
2018-11-06T21:48:17.333Z,14.30
2018-11-06T21:50:45.617Z,14.30
2018-11-06T21:53:13.847Z,13.40
2018-11-06T21:55:42.033Z,13.93
2018-11-06T21:58:10.178Z,14.40
2018-11-06T22:00:38.314Z,12.87
2018-11-06T22:03:06.483Z,13.37
2018-11-06T22:05:34.756Z,14.30
2018-11-06T22:08:02.987Z,14.27
2018-11-06T22:10:31.111Z,13.33
2018-11-06T22:12:59.331Z,14.33
2018-11-06T22:15:27.480Z,13.60
2018-11-06T22:17:55.637Z,13.83
2018-11-06T22:20:23.798Z,13.87
2018-11-06T22:22:52.019Z,12.97
2018-11-06T22:25:20.136Z,12.80
2018-11-06T22:27:48.252Z,14.03
2018-11-06T22:30:17.020Z,13.17
2018-11-06T22:32:46.120Z,12.73
2018-11-06T22:35:15.604Z,13.33
2018-11-06T22:37:43.799Z,12.60
2018-11-06T22:40:13.827Z,12.47
2018-11-06T22:42:42.022Z,12.90
2018-11-06T22:45:11.800Z,11.80
2018-11-06T22:47:40.163Z,12.00
2018-11-06T22:50:09.516Z,10.70
2018-11-06T22:52:37.651Z,11.43
2018-11-06T22:55:06.120Z,11.77
2018-11-06T22:57:34.705Z,10.70
2018-11-06T23:00:03.279Z,10.87
2018-11-06T23:02:31.415Z,10.77
2018-11-06T23:04:59.551Z,10.53
2018-11-06T23:07:33.007Z,10.53
2018-11-06T23:10:01.127Z,9.90
2018-11-06T23:12:29.471Z,9.87
2018-11-06T23:14:57.588Z,10.37
2018-11-06T23:17:25.732Z,11.10
2018-11-06T23:19:53.890Z,10.00
2018-11-06T23:22:22.060Z,10.20
2018-11-06T23:24:50.209Z,9.93
2018-11-06T23:27:18.311Z,10.03
2018-11-06T23:29:46.427Z,9.70
2018-11-06T23:32:14.537Z,10.27
2018-11-06T23:34:42.672Z,9.70
2018-11-06T23:37:10.824Z,10.13
2018-11-06T23:39:38.979Z,10.07
2018-11-06T23:42:07.162Z,9.47
2018-11-06T23:44:35.336Z,9.10
2018-11-06T23:47:03.457Z,10.10
2018-11-06T23:49:31.579Z,10.23
2018-11-06T23:51:59.745Z,8.47
2018-11-06T23:54:27.934Z,9.20
2018-11-06T23:56:56.094Z,8.10
2018-11-06T23:59:24.184Z,9.33
